createdAt,value
2022-12-07T00:00:26.807Z,2.92
2022-12-07T00:01:28.627Z,2.93
2022-12-07T00:02:30.480Z,2.91
2022-12-07T00:03:32.433Z,2.90
2022-12-07T00:04:34.255Z,2.87
2022-12-07T00:05:36.119Z,2.83
2022-12-07T00:06:38.247Z,2.83
2022-12-07T00:07:40.120Z,2.84
2022-12-07T00:08:41.944Z,2.83
2022-12-07T00:09:43.832Z,2.82
2022-12-07T00:10:45.954Z,2.80
2022-12-07T00:11:47.661Z,2.81
2022-12-07T00:12:49.472Z,2.81
2022-12-07T00:13:51.296Z,2.85
2022-12-07T00:14:53.093Z,2.87
2022-12-07T00:15:54.928Z,2.91
2022-12-07T00:16:57.147Z,2.90
2022-12-07T00:17:58.951Z,2.90
2022-12-07T00:19:00.752Z,2.89
2022-12-07T00:20:02.800Z,2.88
2022-12-07T00:21:05.150Z,2.88
2022-12-07T00:22:06.970Z,2.86
2022-12-07T00:23:08.761Z,2.84
2022-12-07T00:24:10.548Z,2.82
2022-12-07T00:25:12.342Z,2.86
2022-12-07T00:26:14.504Z,2.84
2022-12-07T00:27:16.297Z,2.83
2022-12-07T00:28:18.074Z,2.83
2022-12-07T00:29:19.901Z,2.83
2022-12-07T00:30:21.809Z,2.84
2022-12-07T00:31:23.730Z,2.85
2022-12-07T00:32:25.558Z,2.81
2022-12-07T00:33:27.369Z,2.80
2022-12-07T00:34:29.187Z,2.81
2022-12-07T00:35:31.022Z,2.81
2022-12-07T00:36:32.944Z,2.83
2022-12-07T00:37:35.848Z,2.84
2022-12-07T00:38:37.643Z,2.86
2022-12-07T00:39:39.430Z,2.89
2022-12-07T00:40:41.319Z,2.89
2022-12-07T00:41:43.177Z,2.91
2022-12-07T00:42:44.989Z,2.87
2022-12-07T00:43:46.791Z,2.90
2022-12-07T00:44:48.597Z,2.91
2022-12-07T00:45:50.400Z,2.95
2022-12-07T00:46:52.318Z,2.98
2022-12-07T00:47:54.126Z,2.94
2022-12-07T00:48:55.908Z,2.92
2022-12-07T00:49:57.718Z,2.92
2022-12-07T00:50:59.599Z,2.91
2022-12-07T00:52:01.552Z,2.89
2022-12-07T00:53:03.352Z,2.89
2022-12-07T00:54:05.167Z,2.89
2022-12-07T00:55:06.973Z,2.88
2022-12-07T00:56:08.891Z,2.89
2022-12-07T00:57:10.734Z,2.89
2022-12-07T00:58:12.532Z,2.86
2022-12-07T00:59:14.316Z,2.84
2022-12-07T01:00:16.219Z,2.82
2022-12-07T01:01:18.062Z,2.83
2022-12-07T01:02:19.860Z,2.85
2022-12-07T01:03:21.762Z,2.85
2022-12-07T01:04:23.584Z,2.82
2022-12-07T01:05:25.401Z,2.82
2022-12-07T01:06:27.312Z,2.83
2022-12-07T01:07:29.193Z,2.86
2022-12-07T01:08:31.007Z,2.86
2022-12-07T01:09:32.824Z,2.86
2022-12-07T01:10:34.904Z,2.79
2022-12-07T01:11:36.720Z,2.78
2022-12-07T01:12:38.571Z,2.77
2022-12-07T01:13:40.351Z,2.73
2022-12-07T01:14:42.174Z,2.68
2022-12-07T01:15:43.977Z,2.65
2022-12-07T01:16:45.818Z,2.65
2022-12-07T01:17:47.649Z,2.67
2022-12-07T01:18:49.447Z,2.71
2022-12-07T01:19:51.232Z,2.74
2022-12-07T01:20:53.533Z,2.80
2022-12-07T01:21:55.337Z,2.80
2022-12-07T01:22:57.284Z,2.78
2022-12-07T01:23:59.091Z,2.80
2022-12-07T01:25:00.892Z,2.75
2022-12-07T01:26:02.679Z,2.73
2022-12-07T01:27:04.512Z,2.71
2022-12-07T01:28:06.369Z,2.70
2022-12-07T01:29:08.181Z,2.73
2022-12-07T01:30:10.288Z,2.74
2022-12-07T01:31:12.136Z,2.71
2022-12-07T01:32:13.917Z,2.68
2022-12-07T01:33:15.760Z,2.65
2022-12-07T01:34:17.565Z,2.64
2022-12-07T01:35:19.366Z,2.63
2022-12-07T01:36:21.185Z,2.61
2022-12-07T01:37:23.008Z,2.62
2022-12-07T01:38:24.917Z,2.65
2022-12-07T01:39:26.726Z,2.64
2022-12-07T01:40:28.834Z,2.66
2022-12-07T01:41:30.632Z,2.69
2022-12-07T01:42:32.427Z,2.71
2022-12-07T01:43:34.277Z,2.74
2022-12-07T01:44:36.090Z,2.73
2022-12-07T01:45:37.891Z,2.73
2022-12-07T01:46:39.985Z,2.72
2022-12-07T01:47:41.812Z,2.73
2022-12-07T01:48:43.656Z,2.76
2022-12-07T01:49:45.450Z,2.75
2022-12-07T01:50:47.356Z,2.75
2022-12-07T01:51:49.183Z,2.74
2022-12-07T01:52:50.995Z,2.74
2022-12-07T01:53:52.956Z,2.74
2022-12-07T01:54:54.760Z,2.75
2022-12-07T01:55:56.563Z,2.78
2022-12-07T01:56:58.480Z,2.82
2022-12-07T01:58:00.276Z,2.85
2022-12-07T01:59:02.118Z,2.84
2022-12-07T02:00:04.010Z,2.82
2022-12-07T02:01:06.080Z,2.79
2022-12-07T02:02:07.904Z,2.75
2022-12-07T02:03:09.738Z,2.75
2022-12-07T02:04:11.576Z,2.76
2022-12-07T02:05:13.385Z,2.77
2022-12-07T02:06:15.191Z,2.78
2022-12-07T02:07:16.987Z,2.79
2022-12-07T02:08:18.880Z,2.81
2022-12-07T02:09:21.658Z,2.81
2022-12-07T02:10:23.473Z,2.82
2022-12-07T02:11:25.270Z,2.86
2022-12-07T02:12:27.073Z,2.88
2022-12-07T02:13:28.867Z,2.89
2022-12-07T02:14:30.714Z,2.84
2022-12-07T02:15:32.558Z,2.86
2022-12-07T02:16:34.620Z,2.83
2022-12-07T02:17:36.437Z,2.80
2022-12-07T02:18:38.248Z,2.79
2022-12-07T02:19:40.087Z,2.76
2022-12-07T02:20:42.195Z,2.70
2022-12-07T02:21:44.003Z,2.69
2022-12-07T02:22:45.809Z,2.65
2022-12-07T02:23:47.603Z,2.66
2022-12-07T02:24:49.578Z,2.66
2022-12-07T02:25:51.389Z,2.68
2022-12-07T02:26:53.289Z,2.69
2022-12-07T02:27:55.088Z,2.69
2022-12-07T02:28:56.879Z,2.70
2022-12-07T02:29:58.879Z,2.74
2022-12-07T02:31:01.047Z,2.75
2022-12-07T02:32:02.805Z,2.76
2022-12-07T02:33:04.618Z,2.80
2022-12-07T02:34:06.417Z,2.83
2022-12-07T02:35:08.272Z,2.84
2022-12-07T02:36:10.478Z,2.87
2022-12-07T02:37:12.343Z,2.85
2022-12-07T02:38:14.154Z,2.88
2022-12-07T02:39:15.965Z,2.88
2022-12-07T02:40:17.882Z,2.86
2022-12-07T02:41:19.676Z,2.84
2022-12-07T02:42:21.483Z,2.85
2022-12-07T02:43:23.301Z,2.86
2022-12-07T02:44:25.108Z,2.87
2022-12-07T02:45:26.952Z,2.82
2022-12-07T02:46:28.904Z,2.82
2022-12-07T02:47:30.768Z,2.80
2022-12-07T02:48:32.573Z,2.77
2022-12-07T02:49:34.369Z,2.77
2022-12-07T02:50:36.222Z,2.77
2022-12-07T02:51:38.022Z,2.75
2022-12-07T02:52:39.832Z,2.74
2022-12-07T02:53:41.638Z,2.73
2022-12-07T02:54:43.447Z,2.77
2022-12-07T02:55:45.307Z,2.76
2022-12-07T02:56:47.219Z,2.74
2022-12-07T02:57:49.033Z,2.73
2022-12-07T02:58:50.831Z,2.72
2022-12-07T02:59:52.741Z,2.71
2022-12-07T03:00:54.787Z,2.71
2022-12-07T03:01:56.680Z,2.71
2022-12-07T03:02:58.631Z,2.68
2022-12-07T03:04:00.509Z,2.66
2022-12-07T03:05:02.320Z,2.64
2022-12-07T03:06:04.265Z,2.64
2022-12-07T03:07:06.056Z,2.63
2022-12-07T03:08:07.921Z,2.62
2022-12-07T03:09:09.780Z,2.63
2022-12-07T03:10:11.880Z,2.64
2022-12-07T03:11:18.972Z,2.64
2022-12-07T03:12:17.455Z,2.63
2022-12-07T03:13:19.250Z,2.63
2022-12-07T03:14:21.049Z,2.64
2022-12-07T03:15:22.888Z,2.60
2022-12-07T03:16:24.810Z,2.57
2022-12-07T03:17:26.577Z,2.54
2022-12-07T03:18:28.371Z,2.52
2022-12-07T03:19:30.171Z,2.52
2022-12-07T03:20:32.281Z,2.54
2022-12-07T03:21:34.126Z,2.52
2022-12-07T03:22:35.926Z,2.53
2022-12-07T03:23:39.538Z,2.54
2022-12-07T03:24:41.336Z,2.54
2022-12-07T03:25:43.144Z,2.56
2022-12-07T03:26:45.112Z,2.54
2022-12-07T03:27:46.907Z,2.54
2022-12-07T03:28:48.715Z,2.55
2022-12-07T03:29:50.511Z,2.56
2022-12-07T03:30:52.451Z,2.61
2022-12-07T03:31:54.270Z,2.61
2022-12-07T03:32:56.077Z,2.58
2022-12-07T03:33:57.866Z,2.59
2022-12-07T03:34:59.682Z,2.57
2022-12-07T03:36:01.492Z,2.53
2022-12-07T03:37:03.333Z,2.51
2022-12-07T03:38:05.143Z,2.47
2022-12-07T03:39:06.930Z,2.46
2022-12-07T03:40:09.347Z,2.42
2022-12-07T03:41:11.159Z,2.41
2022-12-07T03:42:13.045Z,2.43
2022-12-07T03:43:14.839Z,2.45
2022-12-07T03:44:16.643Z,2.44
2022-12-07T03:45:18.948Z,2.44
2022-12-07T03:46:21.672Z,2.47
2022-12-07T03:47:23.505Z,2.47
2022-12-07T03:48:25.307Z,2.44
2022-12-07T03:49:27.129Z,2.45
2022-12-07T03:50:28.953Z,2.45
2022-12-07T03:51:30.774Z,2.44
2022-12-07T03:52:32.617Z,2.44
2022-12-07T03:53:34.427Z,2.43
2022-12-07T03:54:36.238Z,2.45
2022-12-07T03:55:38.038Z,2.43
2022-12-07T03:56:39.921Z,2.44
2022-12-07T03:57:41.938Z,2.44
2022-12-07T03:58:43.756Z,2.45
2022-12-07T03:59:45.556Z,2.49
2022-12-07T04:00:47.364Z,2.49
2022-12-07T04:01:49.205Z,2.47
2022-12-07T04:02:51.178Z,2.44
2022-12-07T04:03:52.893Z,2.42
2022-12-07T04:04:54.710Z,2.42
2022-12-07T04:05:56.509Z,2.41
2022-12-07T04:06:58.308Z,2.38
2022-12-07T04:08:00.236Z,2.40
2022-12-07T04:09:02.064Z,2.39
2022-12-07T04:10:04.219Z,2.38
2022-12-07T04:11:06.176Z,2.36
2022-12-07T04:12:07.983Z,2.34
2022-12-07T04:13:09.957Z,2.34
2022-12-07T04:14:11.777Z,2.33
2022-12-07T04:15:13.584Z,2.30
2022-12-07T04:16:15.530Z,2.30
2022-12-07T04:17:17.377Z,2.28
2022-12-07T04:18:19.211Z,2.25
2022-12-07T04:19:21.005Z,2.25
2022-12-07T04:20:22.922Z,2.22
2022-12-07T04:21:24.746Z,2.20
2022-12-07T04:22:26.563Z,2.17
2022-12-07T04:23:28.411Z,2.13
2022-12-07T04:24:30.220Z,2.17
2022-12-07T04:25:32.027Z,2.17
2022-12-07T04:26:33.948Z,2.18
2022-12-07T04:27:35.760Z,2.17
2022-12-07T04:28:37.836Z,2.19
2022-12-07T04:29:39.644Z,2.17
2022-12-07T04:30:41.566Z,2.16
2022-12-07T04:31:43.390Z,2.17
2022-12-07T04:32:45.181Z,2.11
2022-12-07T04:33:47.053Z,2.06
2022-12-07T04:34:54.005Z,2.02
2022-12-07T04:35:52.513Z,2.00
2022-12-07T04:36:54.413Z,1.94
2022-12-07T04:37:56.188Z,1.89
2022-12-07T04:38:58.036Z,1.88
2022-12-07T04:40:00.128Z,1.89
2022-12-07T04:41:02.144Z,1.89
2022-12-07T04:42:03.953Z,1.88
2022-12-07T04:43:05.752Z,1.90
2022-12-07T04:44:07.659Z,1.91
2022-12-07T04:45:09.479Z,1.89
2022-12-07T04:46:12.226Z,1.89
2022-12-07T04:47:14.125Z,1.89
2022-12-07T04:48:15.981Z,1.84
2022-12-07T04:49:17.826Z,1.82
2022-12-07T04:50:19.747Z,1.82
2022-12-07T04:51:21.563Z,1.82
2022-12-07T04:52:23.534Z,1.84
2022-12-07T04:53:25.316Z,1.84
2022-12-07T04:54:27.182Z,1.84
2022-12-07T04:55:28.990Z,1.83
2022-12-07T04:56:30.784Z,1.82
2022-12-07T04:57:32.584Z,1.80
2022-12-07T04:58:34.383Z,1.83
2022-12-07T04:59:38.840Z,1.81
2022-12-07T05:00:40.059Z,1.81
2022-12-07T05:01:41.982Z,1.81
2022-12-07T05:02:43.831Z,1.82
2022-12-07T05:03:45.647Z,1.84
2022-12-07T05:04:47.493Z,1.86
2022-12-07T05:05:49.274Z,1.89
2022-12-07T05:06:51.492Z,1.90
2022-12-07T05:07:53.339Z,1.91
2022-12-07T05:08:55.170Z,1.92
2022-12-07T05:09:57.043Z,1.91
2022-12-07T05:10:58.962Z,1.93
2022-12-07T05:12:00.772Z,1.92
2022-12-07T05:13:02.574Z,1.92
2022-12-07T05:14:04.385Z,1.93
2022-12-07T05:15:06.314Z,1.96
2022-12-07T05:16:08.968Z,1.96
2022-12-07T05:17:10.744Z,1.91
2022-12-07T05:18:12.539Z,1.88
2022-12-07T05:19:14.322Z,1.85
2022-12-07T05:20:16.169Z,1.85
2022-12-07T05:21:17.980Z,1.85
2022-12-07T05:22:19.793Z,1.81
2022-12-07T05:23:21.592Z,1.78
2022-12-07T05:24:23.412Z,1.77
2022-12-07T05:25:25.415Z,1.81
2022-12-07T05:26:27.549Z,1.81
2022-12-07T05:27:29.342Z,1.82
2022-12-07T05:30:13.749Z,1.76
2022-12-07T05:32:43.165Z,1.66
2022-12-07T05:33:44.964Z,1.61
2022-12-07T05:35:57.736Z,1.58
2022-12-07T05:36:59.689Z,1.57
2022-12-07T05:38:01.513Z,1.56
2022-12-07T05:39:03.357Z,1.56
2022-12-07T05:40:05.666Z,1.54
2022-12-07T05:41:07.605Z,1.55
2022-12-07T05:42:09.458Z,1.54
2022-12-07T05:43:11.380Z,1.57
2022-12-07T05:44:13.198Z,1.57
2022-12-07T05:45:15.049Z,1.58
2022-12-07T05:46:17.022Z,1.58
2022-12-07T05:47:18.946Z,1.56
2022-12-07T05:48:20.749Z,1.56
2022-12-07T05:49:22.566Z,1.56
2022-12-07T05:50:24.580Z,1.62
2022-12-07T05:51:26.421Z,1.64
2022-12-07T05:52:28.286Z,1.68
2022-12-07T05:53:30.118Z,1.69
2022-12-07T05:54:31.926Z,1.69
2022-12-07T05:55:33.734Z,1.71
2022-12-07T05:56:35.752Z,1.71
2022-12-07T05:57:37.608Z,1.70
2022-12-07T05:58:39.402Z,1.69
2022-12-07T05:59:41.223Z,1.66
2022-12-07T06:00:46.769Z,1.66
2022-12-07T06:01:46.920Z,1.62
2022-12-07T06:02:49.014Z,1.60
2022-12-07T06:03:51.014Z,1.58
2022-12-07T06:04:52.845Z,1.56
2022-12-07T06:05:54.686Z,1.56
2022-12-07T06:06:56.618Z,1.56
2022-12-07T06:08:04.135Z,1.57
2022-12-07T06:09:02.153Z,1.57
2022-12-07T06:10:04.257Z,1.59
2022-12-07T06:11:06.198Z,1.62
2022-12-07T06:12:07.986Z,1.63
2022-12-07T06:13:09.864Z,1.66
2022-12-07T06:14:11.702Z,1.67
2022-12-07T06:15:13.573Z,1.67
2022-12-07T06:16:15.649Z,1.65
2022-12-07T06:17:17.433Z,1.66
2022-12-07T06:18:19.454Z,1.63
2022-12-07T06:19:21.263Z,1.65
2022-12-07T06:20:23.198Z,1.66
2022-12-07T06:21:25.028Z,1.67
2022-12-07T06:22:26.849Z,1.70
2022-12-07T06:23:28.739Z,1.71
2022-12-07T06:24:30.631Z,1.72
2022-12-07T06:25:32.439Z,1.72
2022-12-07T06:26:34.356Z,1.73
2022-12-07T06:27:36.183Z,1.72
2022-12-07T06:28:38.063Z,1.73
2022-12-07T06:29:39.898Z,1.72
2022-12-07T06:30:42.241Z,1.70
2022-12-07T06:31:44.157Z,1.70
2022-12-07T06:32:46.107Z,1.67
2022-12-07T06:33:47.957Z,1.64
2022-12-07T06:34:49.788Z,1.64
2022-12-07T06:35:51.642Z,1.63
2022-12-07T06:36:53.582Z,1.63
2022-12-07T06:37:55.567Z,1.63
2022-12-07T06:40:24.884Z,1.63
2022-12-07T06:41:26.701Z,1.63
2022-12-07T06:42:28.532Z,1.64
2022-12-07T06:43:30.371Z,1.63
2022-12-07T06:44:32.229Z,1.64
2022-12-07T06:45:34.088Z,1.67
2022-12-07T06:46:35.962Z,1.68
2022-12-07T06:47:42.087Z,1.70
2022-12-07T06:48:41.412Z,1.69
2022-12-07T06:49:43.689Z,1.69
2022-12-07T06:50:48.639Z,1.70
2022-12-07T06:51:49.556Z,1.72
2022-12-07T06:52:51.374Z,1.73
2022-12-07T06:53:53.189Z,1.77
2022-12-07T06:54:55.057Z,1.73
2022-12-07T06:55:56.899Z,1.71
2022-12-07T06:56:59.426Z,1.71
2022-12-07T06:58:01.241Z,1.68
2022-12-07T06:59:03.077Z,1.68
2022-12-07T07:00:05.694Z,1.71
2022-12-07T07:01:07.892Z,1.71
2022-12-07T07:02:09.743Z,1.69
2022-12-07T07:03:11.601Z,1.68
2022-12-07T07:04:13.428Z,1.70
2022-12-07T07:05:15.320Z,1.72
2022-12-07T07:06:17.149Z,1.75
2022-12-07T07:07:18.970Z,1.77
2022-12-07T07:08:22.580Z,1.76
2022-12-07T07:09:24.583Z,1.75
2022-12-07T07:10:26.960Z,1.71
2022-12-07T07:11:28.797Z,1.72
2022-12-07T07:12:30.626Z,1.76
2022-12-07T07:13:32.424Z,1.79
2022-12-07T07:14:34.264Z,1.80
2022-12-07T07:15:36.109Z,1.81
2022-12-07T07:16:38.124Z,1.81
2022-12-07T07:17:39.962Z,1.84
2022-12-07T07:18:41.791Z,1.83
2022-12-07T07:19:43.827Z,1.83
2022-12-07T07:20:45.955Z,1.82
2022-12-07T07:21:47.791Z,1.83
2022-12-07T07:22:49.666Z,1.85
2022-12-07T07:23:51.458Z,1.87
2022-12-07T07:24:53.280Z,1.90
2022-12-07T07:25:55.156Z,1.91
2022-12-07T07:26:57.121Z,1.91
2022-12-07T07:27:58.927Z,1.90
2022-12-07T07:29:00.748Z,1.88
2022-12-07T07:30:03.152Z,1.90
2022-12-07T07:31:05.333Z,1.92
2022-12-07T07:32:07.285Z,1.93
2022-12-07T07:33:09.104Z,1.97
2022-12-07T07:34:10.945Z,2.00
2022-12-07T07:35:12.769Z,1.99
2022-12-07T07:36:14.757Z,1.93
2022-12-07T07:37:21.802Z,1.95
2022-12-07T07:38:20.217Z,1.96
2022-12-07T07:39:22.041Z,1.92
2022-12-07T07:40:23.962Z,1.92
2022-12-07T07:41:25.821Z,1.92
2022-12-07T07:42:27.640Z,1.92
2022-12-07T07:43:29.472Z,1.92
2022-12-07T07:44:35.092Z,1.93
2022-12-07T07:45:34.947Z,1.97
2022-12-07T07:46:37.054Z,1.93
2022-12-07T07:47:39.029Z,1.93
2022-12-07T07:48:40.848Z,1.94
2022-12-07T07:49:47.710Z,1.97
2022-12-07T07:50:46.508Z,1.99
2022-12-07T07:51:48.452Z,1.99
2022-12-07T07:52:50.259Z,2.01
2022-12-07T07:53:52.070Z,2.03
2022-12-07T07:54:53.883Z,2.05
2022-12-07T07:55:55.702Z,2.08
2022-12-07T07:56:57.777Z,2.09
2022-12-07T07:57:59.587Z,2.13
2022-12-07T07:59:01.419Z,2.13
2022-12-07T08:00:03.649Z,2.17
2022-12-07T08:01:05.823Z,2.18
2022-12-07T08:02:07.856Z,2.18
2022-12-07T08:03:09.651Z,2.21
2022-12-07T08:04:11.475Z,2.19
2022-12-07T08:05:13.391Z,2.20
2022-12-07T08:06:15.442Z,2.22
2022-12-07T08:07:17.418Z,2.26
2022-12-07T08:08:19.270Z,2.24
2022-12-07T08:09:21.242Z,2.26
2022-12-07T08:10:23.154Z,2.28
2022-12-07T08:11:24.976Z,2.29
2022-12-07T08:12:26.808Z,2.30
2022-12-07T08:13:31.259Z,2.33
2022-12-07T08:14:32.230Z,2.34
2022-12-07T08:15:34.084Z,2.35
2022-12-07T08:16:35.991Z,2.39
2022-12-07T08:17:37.872Z,2.41
2022-12-07T08:18:39.698Z,2.43
2022-12-07T08:19:41.508Z,2.45
2022-12-07T08:20:43.453Z,2.48
2022-12-07T08:21:45.270Z,2.49
2022-12-07T08:22:47.157Z,2.52
2022-12-07T08:23:48.930Z,2.54
2022-12-07T08:24:50.747Z,2.55
2022-12-07T08:25:52.567Z,2.55
2022-12-07T08:26:54.579Z,2.57
2022-12-07T08:27:56.423Z,2.59
2022-12-07T08:28:58.245Z,2.61
2022-12-07T08:30:00.456Z,2.63
2022-12-07T08:31:02.693Z,2.64
2022-12-07T08:32:09.438Z,2.65
2022-12-07T08:33:08.136Z,2.65
2022-12-07T08:34:09.920Z,2.68
2022-12-07T08:35:11.741Z,2.71
2022-12-07T08:36:13.570Z,2.73
2022-12-07T08:37:15.374Z,2.71
2022-12-07T08:38:17.292Z,2.73
2022-12-07T08:39:34.404Z,2.71
2022-12-07T08:40:22.982Z,2.72
2022-12-07T08:41:24.773Z,2.74
2022-12-07T08:42:26.570Z,2.76
2022-12-07T08:43:28.421Z,2.77
2022-12-07T08:44:30.225Z,2.79
2022-12-07T08:45:32.028Z,2.80
2022-12-07T08:46:34.152Z,2.80
2022-12-07T08:47:36.051Z,2.79
2022-12-07T08:48:37.990Z,2.80
2022-12-07T08:49:39.792Z,2.79
2022-12-07T08:50:47.641Z,2.76
2022-12-07T08:51:45.468Z,2.77
2022-12-07T08:52:47.276Z,2.76
2022-12-07T08:53:49.438Z,2.80
2022-12-07T08:54:51.274Z,2.83
2022-12-07T08:55:53.096Z,2.88
2022-12-07T08:56:59.066Z,2.89
2022-12-07T08:57:58.592Z,2.91
2022-12-07T08:59:00.471Z,2.93
2022-12-07T09:00:02.531Z,2.92
2022-12-07T09:01:04.529Z,2.91
2022-12-07T09:02:06.468Z,2.91
2022-12-07T09:03:08.396Z,2.91
2022-12-07T09:04:10.249Z,2.90
2022-12-07T09:05:16.532Z,2.90
2022-12-07T09:06:16.079Z,2.90
2022-12-07T09:07:18.053Z,2.88
2022-12-07T09:08:20.085Z,2.87
2022-12-07T09:09:22.030Z,2.87
2022-12-07T09:10:23.981Z,2.87
2022-12-07T09:11:28.830Z,2.90
2022-12-07T09:12:29.479Z,2.91
2022-12-07T09:13:31.278Z,2.94
2022-12-07T09:14:33.140Z,2.95
2022-12-07T09:15:35.096Z,2.94
2022-12-07T09:16:37.781Z,2.95
2022-12-07T09:17:39.747Z,2.96
2022-12-07T09:18:41.565Z,2.98
2022-12-07T09:19:43.625Z,3.01
2022-12-07T09:20:46.012Z,3.01
2022-12-07T09:21:47.861Z,3.03
2022-12-07T09:22:49.897Z,3.04
2022-12-07T09:23:51.704Z,3.06
2022-12-07T09:24:53.645Z,3.07
2022-12-07T09:25:55.446Z,3.06
2022-12-07T09:26:57.703Z,3.09
2022-12-07T09:27:59.518Z,3.10
2022-12-07T09:29:01.313Z,3.11
2022-12-07T09:30:03.725Z,3.11
2022-12-07T09:32:11.750Z,3.10
2022-12-07T09:33:13.031Z,3.08
2022-12-07T09:34:14.904Z,3.08
2022-12-07T09:35:16.784Z,3.06
2022-12-07T09:36:19.187Z,3.04
2022-12-07T09:37:21.001Z,3.02
2022-12-07T09:38:22.834Z,3.03
2022-12-07T09:39:24.635Z,3.04
2022-12-07T09:40:26.852Z,3.01
2022-12-07T09:41:28.685Z,2.99
2022-12-07T09:42:30.598Z,2.99
2022-12-07T09:43:32.555Z,3.00
2022-12-07T09:44:34.352Z,3.02
2022-12-07T09:45:36.213Z,3.04
2022-12-07T09:46:38.356Z,3.05
2022-12-07T09:47:40.229Z,3.05
2022-12-07T09:48:42.020Z,3.04
2022-12-07T09:49:43.848Z,3.03
2022-12-07T09:50:45.843Z,3.02
2022-12-07T09:51:47.673Z,3.01
2022-12-07T09:52:49.504Z,2.97
2022-12-07T09:53:51.383Z,2.95
2022-12-07T09:54:54.965Z,2.94
2022-12-07T09:55:56.999Z,2.95
2022-12-07T09:56:59.227Z,2.91
2022-12-07T09:58:01.018Z,2.90
2022-12-07T09:59:02.837Z,2.89
2022-12-07T10:00:04.940Z,2.89
2022-12-07T10:01:06.765Z,2.89
2022-12-07T10:02:08.631Z,2.91
2022-12-07T10:03:10.414Z,2.92
2022-12-07T10:04:12.256Z,2.90
2022-12-07T10:05:16.572Z,2.90
2022-12-07T10:06:17.986Z,2.89
2022-12-07T10:07:19.798Z,2.88
2022-12-07T10:08:21.741Z,2.89
2022-12-07T10:09:23.682Z,2.90
2022-12-07T10:10:25.676Z,2.90
2022-12-07T10:11:27.608Z,2.91
2022-12-07T10:12:29.435Z,2.92
2022-12-07T10:13:31.330Z,2.90
2022-12-07T10:15:05.721Z,2.89
2022-12-07T10:15:37.155Z,2.86
2022-12-07T10:16:39.278Z,2.87
2022-12-07T10:17:41.145Z,2.85
2022-12-07T10:18:43.005Z,2.83
2022-12-07T10:19:44.787Z,2.83
2022-12-07T10:20:46.847Z,2.82
2022-12-07T10:21:48.703Z,2.80
2022-12-07T10:22:50.522Z,2.80
2022-12-07T10:23:52.346Z,2.79
2022-12-07T10:24:54.163Z,2.80
2022-12-07T10:25:55.983Z,2.80
2022-12-07T10:26:58.258Z,2.82
2022-12-07T10:28:00.097Z,2.83
2022-12-07T10:29:01.933Z,2.84
2022-12-07T10:30:03.836Z,2.85
2022-12-07T10:31:05.760Z,2.89
2022-12-07T10:32:07.723Z,2.92
2022-12-07T10:33:09.593Z,2.94
2022-12-07T10:34:11.379Z,2.97
2022-12-07T10:35:13.199Z,3.00
2022-12-07T10:36:15.232Z,3.02
2022-12-07T10:37:17.100Z,3.05
2022-12-07T10:38:18.904Z,3.09
2022-12-07T10:39:20.721Z,3.11
2022-12-07T10:40:22.652Z,3.10
2022-12-07T10:41:24.459Z,3.09
2022-12-07T10:42:26.355Z,3.07
2022-12-07T10:43:28.176Z,3.09
2022-12-07T10:44:29.998Z,3.09
2022-12-07T10:45:31.885Z,3.08
2022-12-07T10:46:34.000Z,3.05
2022-12-07T10:47:35.862Z,3.03
2022-12-07T10:48:37.703Z,3.02
2022-12-07T10:49:39.563Z,3.02
2022-12-07T10:50:41.807Z,3.02
2022-12-07T10:51:44.696Z,3.03
2022-12-07T10:52:46.595Z,3.00
2022-12-07T10:53:48.438Z,2.98
2022-12-07T10:54:50.263Z,2.98
2022-12-07T10:55:52.063Z,2.99
2022-12-07T10:56:54.194Z,2.98
2022-12-07T10:57:56.128Z,2.99
2022-12-07T10:58:57.973Z,2.96
2022-12-07T10:59:59.806Z,2.95
2022-12-07T11:01:01.657Z,2.95
2022-12-07T11:02:03.604Z,2.94
2022-12-07T11:03:06.950Z,2.96
2022-12-07T11:04:08.785Z,2.94
2022-12-07T11:05:10.624Z,2.99
2022-12-07T11:06:12.547Z,2.98
2022-12-07T11:07:14.340Z,2.98
2022-12-07T11:08:16.244Z,2.98
2022-12-07T11:09:18.202Z,3.00
2022-12-07T11:10:20.807Z,2.99
2022-12-07T11:11:22.847Z,2.99
2022-12-07T11:12:24.685Z,2.98
2022-12-07T11:13:28.803Z,2.98
2022-12-07T11:14:30.385Z,2.97
2022-12-07T11:15:32.204Z,2.98
2022-12-07T11:16:34.294Z,2.98
2022-12-07T11:17:36.165Z,2.95
2022-12-07T11:18:38.048Z,2.96
2022-12-07T11:19:39.901Z,2.95
2022-12-07T11:20:41.818Z,2.93
2022-12-07T11:21:43.629Z,2.92
2022-12-07T11:22:45.472Z,2.94
2022-12-07T11:23:48.192Z,2.94
2022-12-07T11:24:50.232Z,2.94
2022-12-07T11:25:52.058Z,2.94
2022-12-07T11:26:53.989Z,2.96
2022-12-07T11:27:55.797Z,2.95
2022-12-07T11:28:57.956Z,2.94
2022-12-07T11:29:59.972Z,2.96
2022-12-07T11:31:01.816Z,2.94
2022-12-07T11:32:03.695Z,2.92
2022-12-07T11:33:05.572Z,2.94
2022-12-07T11:34:07.474Z,2.98
2022-12-07T11:35:09.317Z,2.98
2022-12-07T11:36:11.632Z,2.89
2022-12-07T11:37:13.444Z,2.89
2022-12-07T11:38:15.267Z,2.89
2022-12-07T11:39:17.133Z,2.86
2022-12-07T11:40:19.172Z,2.82
2022-12-07T11:41:20.997Z,2.80
2022-12-07T11:42:22.805Z,2.81
2022-12-07T11:43:24.633Z,2.83
2022-12-07T11:44:27.656Z,2.84
2022-12-07T11:45:29.677Z,2.85
2022-12-07T11:46:31.734Z,2.83
2022-12-07T11:47:33.627Z,2.83
2022-12-07T11:48:35.432Z,2.82
2022-12-07T11:49:37.301Z,2.82
2022-12-07T11:50:39.332Z,2.80
2022-12-07T11:51:41.144Z,2.82
2022-12-07T11:52:42.956Z,2.84
2022-12-07T11:53:44.781Z,2.84
2022-12-07T11:54:46.665Z,2.84
2022-12-07T11:56:06.690Z,2.86
2022-12-07T11:57:08.511Z,2.85
2022-12-07T11:58:10.337Z,2.87
2022-12-07T11:59:12.151Z,2.91
2022-12-07T12:00:14.355Z,2.93
2022-12-07T12:01:16.180Z,2.95
2022-12-07T12:02:18.077Z,2.94
2022-12-07T12:03:19.958Z,2.93
2022-12-07T12:04:21.963Z,2.94
2022-12-07T12:05:23.820Z,2.94
2022-12-07T12:06:25.844Z,2.93
2022-12-07T12:10:38.826Z,2.91
2022-12-07T12:11:40.651Z,2.89
2022-12-07T12:14:49.982Z,2.83
2022-12-07T12:15:52.811Z,2.83
2022-12-07T12:16:54.851Z,2.82
2022-12-07T12:17:56.817Z,2.83
2022-12-07T12:18:58.626Z,2.87
2022-12-07T12:20:00.448Z,2.87
2022-12-07T12:21:02.339Z,2.83
2022-12-07T12:22:04.222Z,2.81
2022-12-07T12:23:06.193Z,2.79
2022-12-07T12:24:07.999Z,2.81
2022-12-07T12:25:09.878Z,2.80
2022-12-07T12:26:12.183Z,2.80
2022-12-07T12:27:14.104Z,2.80
2022-12-07T12:28:15.894Z,2.82
2022-12-07T12:29:17.716Z,2.84
2022-12-07T12:30:19.640Z,2.89
2022-12-07T12:31:21.794Z,2.92
2022-12-07T12:32:23.788Z,2.95
2022-12-07T12:33:25.655Z,2.94
2022-12-07T12:34:27.461Z,2.95
2022-12-07T12:35:29.266Z,2.96
2022-12-07T12:36:31.273Z,2.99
2022-12-07T12:37:33.207Z,3.00
2022-12-07T12:38:35.030Z,3.00
2022-12-07T12:39:36.845Z,3.01
2022-12-07T12:40:39.080Z,3.02
2022-12-07T12:41:40.942Z,3.02
2022-12-07T12:42:42.758Z,3.03
2022-12-07T12:43:44.585Z,3.00
2022-12-07T12:44:46.387Z,2.96
2022-12-07T12:45:48.262Z,2.95
2022-12-07T12:46:50.784Z,2.97
2022-12-07T12:47:52.784Z,2.96
2022-12-07T12:48:54.605Z,2.98
2022-12-07T12:49:56.404Z,3.01
2022-12-07T12:50:58.496Z,3.03
2022-12-07T12:52:00.353Z,3.04
2022-12-07T12:53:02.194Z,3.06
2022-12-07T12:54:04.063Z,3.08
2022-12-07T12:55:06.016Z,3.08
2022-12-07T12:56:08.292Z,3.09
2022-12-07T12:57:10.145Z,3.08
2022-12-07T12:58:11.968Z,3.09
2022-12-07T12:59:13.781Z,3.09
2022-12-07T13:00:15.875Z,3.10
2022-12-07T13:01:17.742Z,3.11
2022-12-07T13:02:19.768Z,3.11
2022-12-07T13:03:21.581Z,3.14
2022-12-07T13:04:23.396Z,3.15
2022-12-07T13:05:25.221Z,3.14
2022-12-07T13:06:27.136Z,3.15
2022-12-07T13:07:29.052Z,3.15
2022-12-07T13:08:35.160Z,3.15
2022-12-07T13:09:34.520Z,3.16
2022-12-07T13:10:36.421Z,3.15
2022-12-07T13:11:38.386Z,3.14
2022-12-07T13:12:40.253Z,3.15
2022-12-07T13:13:42.073Z,3.13
2022-12-07T13:14:43.904Z,3.11
2022-12-07T13:15:45.941Z,3.09
2022-12-07T13:16:47.948Z,3.13
2022-12-07T13:17:49.830Z,3.13
2022-12-07T13:18:51.652Z,3.12
2022-12-07T13:19:53.492Z,3.14
2022-12-07T13:20:55.724Z,3.13
2022-12-07T13:21:57.520Z,3.13
2022-12-07T13:22:59.445Z,3.12
2022-12-07T13:24:01.283Z,3.10
2022-12-07T13:25:03.258Z,3.09
2022-12-07T13:26:05.727Z,3.05
2022-12-07T13:27:07.556Z,3.00
2022-12-07T13:28:09.454Z,3.01
2022-12-07T13:29:11.274Z,3.01
2022-12-07T13:30:13.172Z,3.01
2022-12-07T13:31:15.004Z,3.02
2022-12-07T13:32:17.407Z,3.02
2022-12-07T13:33:19.604Z,2.99
2022-12-07T13:34:21.383Z,3.01
2022-12-07T13:35:23.213Z,3.04
2022-12-07T13:36:25.477Z,3.05
2022-12-07T13:37:27.268Z,3.04
2022-12-07T13:38:29.142Z,3.05
2022-12-07T13:39:30.966Z,3.07
2022-12-07T13:40:33.014Z,3.07
2022-12-07T13:41:35.027Z,3.07
2022-12-07T13:42:36.877Z,3.06
2022-12-07T13:43:38.753Z,3.06
2022-12-07T13:44:42.313Z,3.07
2022-12-07T13:45:44.256Z,3.08
2022-12-07T13:46:46.331Z,3.09
2022-12-07T13:47:48.163Z,3.09
2022-12-07T13:48:50.078Z,3.09
2022-12-07T13:49:53.717Z,3.09
2022-12-07T13:50:55.942Z,3.10
2022-12-07T13:51:57.742Z,3.08
2022-12-07T13:52:59.445Z,3.06
2022-12-07T13:54:01.311Z,3.07
2022-12-07T13:55:03.900Z,3.06
2022-12-07T13:56:06.048Z,3.05
2022-12-07T13:57:07.872Z,3.03